UNR Ag. Experiment Farm, Sparks, Nevada Weather observations

Data are for 10 minute period ending at time listed.
 Day   Time   Solar   Ave.   Ave.  Ave.  Vector  Max.   Baro.   Total    
  of    of     Rad.   Air    Rel.  Wind   Wind   Wind  Press.  Precip.   
Year   Day            Temp.  Hum.  Speed  Dir.   Gust                    
2015   (PST)  Kw/m2    F      %     mph   deg.    mph    mb.     in.     
-------------------------------------------------------------------------
  26    4:50   0.00   23.8    90    1.4    19     4.4   871.7    0.00 
  26    5:00   0.00   23.5    92    1.3    54     2.9   871.6    0.00 
  26    5:10   0.00   23.7    91    0.5    46     1.2   871.5    0.00 
  26    5:20   0.00   23.5    92    0.8    28     2.1   871.5    0.00 
  26    5:30   0.00   22.3    91    1.6   187     3.9   871.4    0.00 
  26    5:40   0.00   22.6    93    1.9   166     2.8   871.3    0.00 
  26    5:50   0.00   23.0    93    1.3   160     2.3   871.4    0.00 
  26    6:00   0.00   24.9    93    1.3   174     2.2   871.3    0.00 
  26    6:10   0.00   23.3    92    1.0   115     2.7   871.2    0.00 
  26    6:20   0.00   22.4    93    0.2    83     1.5   871.2    0.00 
  26    6:30   0.00   23.2    94    0.0    81     0.7   871.2    0.00 
  26    6:40   0.00   23.8    93    1.0    67     2.9   871.2    0.00 
  26    6:50   0.00   23.8    94    0.8    61     1.6   871.2    0.00 
  26    7:00   0.00   22.4    93    0.6    66     2.0   871.1    0.00 
  26    7:10   0.00   20.8    92    1.2   164     3.1   871.1    0.00 
  26    7:20   0.01   20.4    94    1.2   181     2.9   871.1    0.00 
  26    7:30   0.01   21.3    95    2.0   194     3.2   871.0    0.00 
  26    7:40   0.01   24.4    96    1.4   195     2.5   871.0    0.00 
  26    7:50   0.03   24.2    94    1.3   188     2.0   871.0    0.00 
  26    8:00   0.09   24.2    95    0.3   177     1.2   871.0    0.00 
  26    8:10   0.11   26.2    95    0.0   175     0.8   870.9    0.00 
  26    8:20   0.13   29.4    94    0.1   175     0.7   870.9    0.00 
  26    8:30   0.15   31.4    92    0.2   175     0.7   870.9    0.00 
  26    8:40   0.16   32.0    89    0.0     0     0.0   870.8    0.00 
  26    8:50   0.18   34.2    87    0.0     0     0.0   870.9    0.00 
  26    9:00   0.21   36.7    78    0.0   171     0.4   870.9    0.00 
  26    9:10   0.25   38.9    68    0.2   180     1.5   870.8    0.00 
  26    9:20   0.27   39.1    64    1.3    57     2.9   870.8    0.00 
  26    9:30   0.28   39.8    63    2.1    78     3.7   870.7    0.00 
  26    9:40   0.30   41.1    60    2.1    66     3.9   870.5    0.00 
  26    9:50   0.33   41.8    59    1.6    65     3.4   870.5    0.00 
  26   10:00   0.34   43.2    55    1.1    55     2.4   870.4    0.00 
  26   10:10   0.36   44.9    51    0.7    14     2.8   870.3    0.00 
  26   10:20   0.39   44.7    51    1.9    37     3.9   870.1    0.00 
  26   10:30   0.37   45.1    50    1.3    25     3.4   870.0    0.00 
  26   10:40   0.35   45.4    50    1.2   303     3.3   869.8    0.00 
  26   10:50   0.39   46.9    48    1.1   260     2.6   869.6    0.00 
  26   11:00   0.48   47.9    45    1.3   332     2.9   869.4    0.00 
  26   11:10   0.43   49.3    43    1.3    15     2.7   869.2    0.00 
  26   11:20   0.18   49.1    43    1.5   260     3.9   869.1    0.00 
  26   11:30   0.24   48.4    44    1.0   294     2.8   868.9    0.00 
  26   11:40   0.32   49.5    42    2.2   218     4.8   868.7    0.00 
  26   11:50   0.31   50.2    41    2.1   125     4.7   868.4    0.00 
  26   12:00   0.62   52.1    38    1.9   167     3.4   868.1    0.00 
  26   12:10   0.52   53.3    36    1.3   212     3.9   867.9    0.00 
  26   12:20   0.34   53.4    35    2.4   269     4.2   867.8    0.00 
  26   12:30   0.21   52.6    36    1.5   306     3.2   867.7    0.00 
  26   12:40   0.36   53.1    36    0.7   293     2.1   867.6    0.00 
  26   12:50   0.32   54.3    34    1.8   255     4.4   867.4    0.00 
  26   13:00   0.23   54.2    34    1.4   214     3.4   867.2    0.00 
  26   13:10   0.31   54.4    34    2.0   144     4.6   867.0    0.00 
  26   13:20   0.49   55.9    33    2.1   203     5.7   866.9    0.00 
  26   13:30   0.49   56.5    32    2.9   172     5.6   866.7    0.00 
  26   13:40   0.49   58.0    30    2.2   187     5.3   866.6    0.00 
  26   13:50   0.45   58.8    30    2.5   156     4.8   866.6    0.00 
  26   14:00   0.39   59.4    29    1.6   154     4.8   866.5    0.00 
  26   14:10   0.39   60.7    28    0.4   198     2.1   866.5    0.00 
  26   14:20   0.36   60.8    28    1.4   287     3.4   866.5    0.00 
  26   14:30   0.35   59.3    29    3.5   287     6.2   866.4    0.00 
  26   14:40   0.38   58.9    30    3.8   304     6.0   866.3    0.00 
  26   14:50   0.37   59.3    30    3.6   287     6.1   866.3    0.00 
  26   15:00   0.36   60.0    29    3.7   274     6.6   866.2    0.00 
  26   15:10   0.23   59.3    29    3.3   274     6.6   866.2    0.00 
  26   15:20   0.29   59.7    29    3.5   273     6.1   866.1    0.00 
  26   15:30   0.29   60.6    28    2.2   274     5.2   865.9    0.00 
  26   15:40   0.26   60.7    27    1.5   317     3.4   865.9    0.00 
  26   15:50   0.24   61.3    27    0.7   294     2.3   865.8    0.00 
  26   16:00   0.14   62.1    26    0.8   266     2.0   865.8    0.00 
  26   16:10   0.07   61.0    27    0.2   166     1.3   865.8    0.00 
  26   16:20   0.11   59.7    28    1.0   172     1.8   865.6    0.00 
  26   16:30   0.08   59.1    29    0.9   158     1.8   865.5    0.00 
  26   16:40   0.10   58.9    30    0.3    40     1.1   865.4    0.00 
  26   16:50   0.06   58.4    29    0.5    40     0.9   865.3    0.00 
  26   17:00   0.03   57.3    30    0.1    40     1.0   865.4    0.00 
  26   17:10   0.01   54.9    34    3.0    60     5.0   865.2    0.00 
  26   17:20   0.00   53.6    34    4.4    78     5.6   865.2    0.00 
  26   17:30   0.00   54.5    32    2.6   117     4.4   865.4    0.00 
  26   17:40   0.00   52.9    34    1.0   118     2.4   865.4    0.00 
  26   17:50   0.00   51.4    36    1.5   328     2.6   865.3    0.00 
  26   18:00   0.00   50.3    38    1.5   311     2.7   865.3    0.00 
  26   18:10   0.00   47.3    42    3.1   182     5.1   865.3    0.00 
  26   18:20   0.00   49.4    39    4.4   146     5.4   865.3    0.00 
  26   18:30   0.00   49.4    41    4.5   183     5.3   865.3    0.00 
  26   18:40   0.00   46.4    45    3.6   269     4.8   865.5    0.00 
  26   18:50   0.00   46.5    46    4.1   229     6.4   865.6    0.00 
  26   19:00   0.00   49.9    39    4.2   220     5.2   865.6    0.00 
  26   19:10   0.00   50.2    38    4.9   204     7.0   865.7    0.00 
  26   19:20   0.00   49.6    40    4.4   186     6.4   865.8    0.00 
  26   19:30   0.00   49.0    41    3.5   167     6.4   865.9    0.00 
  26   19:40   0.00   46.0    46    2.7   136     4.0   865.8    0.00 
  26   19:50   0.00   46.1    46    2.4   151     3.8   866.0    0.00 
  26   20:00   0.00   45.2    48    2.1   175     4.0   866.1    0.00 
  26   20:10   0.00   43.7    52    3.8   264     4.8   866.1    0.00 
  26   20:20   0.00   45.9    48    1.2   295     3.9   866.2    0.00 
  26   20:30   0.00   46.7    46    0.4   246     2.9   866.2    0.00 
  26   20:40   0.00   46.6    46    1.2   258     3.1   865.9    0.00 
  26   20:50   0.00   44.8    50    2.0   134     3.0   866.1    0.00 
  26   21:00   0.00   42.2    56    2.9    69     3.9   866.1    0.00 
  26   21:10   0.00   42.7    55    1.5    56     2.4   866.0    0.00 
  26   21:20   0.00   41.2    59    2.1   305     2.7   865.9    0.00 
  26   21:30   0.00   41.3    59    1.4   316     2.6   866.0    0.00 
  26   21:40   0.00   38.7    62    1.6   168     2.4   866.0    0.00 
  26   21:50   0.00   39.8    61    0.9    92     1.7   865.9    0.00 
  26   22:00   0.00   42.8    54    1.3   136     2.9   865.9    0.00 
  26   22:10   0.00   40.3    59    2.3   159     3.6   865.8    0.00 
  26   22:20   0.00   37.7    66    0.9   203     2.6   865.6    0.00 
  26   22:30   0.00   37.4    66    3.3   217     4.2   865.8    0.00 
  26   22:40   0.00   38.1    65    2.7   241     4.3   866.0    0.00 
  26   22:50   0.00   39.8    64    1.7   189     5.0   866.1    0.00 
  26   23:00   0.00   37.9    68    2.5   168     4.3   866.3    0.00 
  26   23:10   0.00   39.8    62    1.7   177     3.4   866.4    0.00 
  26   23:20   0.00   36.7    66    2.4   349     5.8   866.4    0.00 
  26   23:30   0.00   35.2    73    3.3    32     5.3   866.4    0.00 
  26   23:40   0.00   36.4    71    1.0   279     2.4   866.4    0.00 
  26   23:50   0.00   34.8    74    0.9   168     2.5   866.4    0.00 
  27    0:00   0.00   36.5    72    1.7   193     2.5   866.4    0.00 
  27    0:10   0.00   39.1    66    1.5   178     2.3   866.4    0.00 
  27    0:20   0.00   39.1    64    2.4   132     3.1   866.3    0.00 
  27    0:30   0.00   37.8    69    0.8   326     2.3   866.2    0.00 
  27    0:40   0.00   37.7    70    1.9     1     3.4   866.2    0.00 
  27    0:50   0.00   37.4    72    1.4   318     4.4   866.1    0.00 
  27    1:00   0.00   37.4    72    3.6   144     5.1   866.1    0.00 
  27    1:10   0.00   39.2    66    4.1   194     5.1   866.1    0.00 
  27    1:20   0.00   40.1    62    4.0   171     4.6   866.0    0.00 
  27    1:30   0.00   39.1    65    2.9   150     3.9   866.0    0.00 
  27    1:40   0.00   38.5    68    1.3   305     3.4   866.1    0.00 
  27    1:50   0.00   37.9    69    2.3   330     3.7   866.2    0.00 
  27    2:00   0.00   37.7    70    3.3   318     4.9   866.1    0.00 
  27    2:10   0.00   37.0    70    1.9   308     3.4   866.1    0.00 
  27    2:20   0.00   36.1    72    1.7   113     4.3   866.1    0.00 
  27    2:30   0.00   35.5    75    2.1   127     3.5   866.2    0.00 
  27    2:40   0.00   35.6    76    2.0   159     3.5   866.2    0.00 
  27    2:50   0.00   36.0    75    2.4   231     3.3   866.3    0.00 
  27    3:00   0.00   36.9    73    0.8   343     2.8   866.2    0.00 
  27    3:10   0.00   35.8    75    2.5    42     3.7   866.3    0.00 
  27    3:20   0.00   35.6    78    0.3    47     1.8   866.2    0.00 
  27    3:30   0.00   35.9    77    0.8   337     2.2   866.2    0.00 
  27    3:40   0.00   37.5    72    1.4   166     3.0   866.2    0.00 
  27    3:50   0.00   35.8    76    0.8   199     2.3   866.3    0.00 
  27    4:00   0.00   36.4    77    0.1   211     0.7   866.3    0.00 
  27    4:10   0.00   37.3    73    1.4   284     3.0   866.3    0.00 
  27    4:20   0.00   36.2    77    1.1   248     2.3   866.3    0.00 
  27    4:30   0.00   36.9    76    0.3   231     1.5   866.3    0.00 
  27    4:40   0.00   37.6    73    0.7    73     1.8   866.3    0.00 

Return to Sparks, Nevada, UNR Ag Experiment Farm graphs page.


Western Regional Climate Center,wrcc@dri.edu